sensor_id;sensor_type;location;lat;lon;timestamp;P1;durP1;ratioP1;P2;durP2;ratioP2
55469;SDS011;41334;47.872;16.384;2022-09-29T00:00:44;0.28;;;0.08;;
55469;SDS011;41334;47.872;16.384;2022-09-29T00:03:48;0.38;;;0.10;;
55469;SDS011;41334;47.872;16.384;2022-09-29T00:06:50;0.10;;;0.00;;
55469;SDS011;41334;47.872;16.384;2022-09-29T00:09:52;1.10;;;0.28;;
55469;SDS011;41334;47.872;16.384;2022-09-29T00:12:53;0.98;;;0.22;;
55469;SDS011;41334;47.872;16.384;2022-09-29T00:15:56;0.40;;;0.15;;
55469;SDS011;41334;47.872;16.384;2022-09-29T00:18:59;0.22;;;0.10;;
55469;SDS011;41334;47.872;16.384;2022-09-29T00:22:01;0.45;;;0.20;;
55469;SDS011;41334;47.872;16.384;2022-09-29T00:25:03;0.45;;;0.10;;
55469;SDS011;41334;47.872;16.384;2022-09-29T00:28:05;0.38;;;0.13;;
55469;SDS011;41334;47.872;16.384;2022-09-29T00:31:08;0.68;;;0.30;;
55469;SDS011;41334;47.872;16.384;2022-09-29T00:34:12;0.85;;;0.32;;
55469;SDS011;41334;47.872;16.384;2022-09-29T00:37:14;1.00;;;0.32;;
55469;SDS011;41334;47.872;16.384;2022-09-29T00:40:15;0.57;;;0.20;;
55469;SDS011;41334;47.872;16.384;2022-09-29T00:47:01;6.65;;;0.43;;
55469;SDS011;41334;47.872;16.384;2022-09-29T00:53:44;0.20;;;0.10;;
55469;SDS011;41334;47.872;16.384;2022-09-29T00:56:47;1.30;;;0.40;;
55469;SDS011;41334;47.872;16.384;2022-09-29T01:02:58;0.20;;;0.10;;
55469;SDS011;41334;47.872;16.384;2022-09-29T01:06:07;1.27;;;0.47;;
55469;SDS011;41334;47.872;16.384;2022-09-29T01:09:15;0.32;;;0.20;;
55469;SDS011;41334;47.872;16.384;2022-09-29T01:12:19;0.33;;;0.20;;
55469;SDS011;41334;47.872;16.384;2022-09-29T01:15:21;0.57;;;0.20;;
55469;SDS011;41334;47.872;16.384;2022-09-29T01:18:23;0.45;;;0.20;;
55469;SDS011;41334;47.872;16.384;2022-09-29T01:21:37;0.80;;;0.40;;
55469;SDS011;41334;47.872;16.384;2022-09-29T01:24:53;1.00;;;0.40;;
55469;SDS011;41334;47.872;16.384;2022-09-29T01:34:49;0.70;;;0.30;;
55469;SDS011;41334;47.872;16.384;2022-09-29T01:38:06;1.38;;;0.40;;
55469;SDS011;41334;47.872;16.384;2022-09-29T01:44:33;0.10;;;0.00;;
55469;SDS011;41334;47.872;16.384;2022-09-29T01:47:47;3.03;;;0.57;;
55469;SDS011;41334;47.872;16.384;2022-09-29T01:50:56;1.63;;;0.30;;
55469;SDS011;41334;47.872;16.384;2022-09-29T01:54:03;0.95;;;0.40;;
55469;SDS011;41334;47.872;16.384;2022-09-29T01:57:32;1.05;;;0.40;;
55469;SDS011;41334;47.872;16.384;2022-09-29T02:00:37;0.77;;;0.40;;
55469;SDS011;41334;47.872;16.384;2022-09-29T02:03:48;0.75;;;0.30;;
55469;SDS011;41334;47.872;16.384;2022-09-29T02:07:05;0.60;;;0.30;;
55469;SDS011;41334;47.872;16.384;2022-09-29T02:10:12;0.45;;;0.20;;
55469;SDS011;41334;47.872;16.384;2022-09-29T02:13:18;0.80;;;0.50;;
55469;SDS011;41334;47.872;16.384;2022-09-29T02:16:25;1.63;;;0.38;;
55469;SDS011;41334;47.872;16.384;2022-09-29T02:22:34;1.00;;;0.50;;
55469;SDS011;41334;47.872;16.384;2022-09-29T02:25:36;0.93;;;0.50;;
55469;SDS011;41334;47.872;16.384;2022-09-29T02:28:40;1.02;;;0.45;;
55469;SDS011;41334;47.872;16.384;2022-09-29T02:31:42;0.05;;;0.00;;
55469;SDS011;41334;47.872;16.384;2022-09-29T02:34:45;0.93;;;0.40;;
55469;SDS011;41334;47.872;16.384;2022-09-29T02:37:53;1.25;;;0.50;;
55469;SDS011;41334;47.872;16.384;2022-09-29T02:48:38;8.52;;;0.70;;
55469;SDS011;41334;47.872;16.384;2022-09-29T02:52:21;0.98;;;0.57;;
55469;SDS011;41334;47.872;16.384;2022-09-29T03:01:50;1.98;;;0.57;;
55469;SDS011;41334;47.872;16.384;2022-09-29T03:04:54;0.90;;;0.28;;
55469;SDS011;41334;47.872;16.384;2022-09-29T03:07:56;1.30;;;0.38;;
55469;SDS011;41334;47.872;16.384;2022-09-29T03:10:57;2.42;;;0.52;;
55469;SDS011;41334;47.872;16.384;2022-09-29T03:13:59;1.35;;;0.40;;
55469;SDS011;41334;47.872;16.384;2022-09-29T03:17:01;0.60;;;0.30;;
55469;SDS011;41334;47.872;16.384;2022-09-29T03:20:04;0.50;;;0.20;;
55469;SDS011;41334;47.872;16.384;2022-09-29T03:23:06;3.97;;;0.40;;
55469;SDS011;41334;47.872;16.384;2022-09-29T03:26:08;1.10;;;0.50;;
55469;SDS011;41334;47.872;16.384;2022-09-29T03:29:10;0.82;;;0.43;;
55469;SDS011;41334;47.872;16.384;2022-09-29T03:32:11;0.47;;;0.15;;
55469;SDS011;41334;47.872;16.384;2022-09-29T03:35:13;1.52;;;0.35;;
55469;SDS011;41334;47.872;16.384;2022-09-29T03:38:15;0.88;;;0.30;;
55469;SDS011;41334;47.872;16.384;2022-09-29T03:41:17;1.45;;;0.43;;
55469;SDS011;41334;47.872;16.384;2022-09-29T03:44:19;2.13;;;0.52;;
55469;SDS011;41334;47.872;16.384;2022-09-29T03:47:21;0.80;;;0.50;;
55469;SDS011;41334;47.872;16.384;2022-09-29T03:50:22;0.10;;;0.00;;
55469;SDS011;41334;47.872;16.384;2022-09-29T03:53:24;1.65;;;0.60;;
55469;SDS011;41334;47.872;16.384;2022-09-29T03:56:26;0.10;;;0.10;;
55469;SDS011;41334;47.872;16.384;2022-09-29T03:59:28;0.68;;;0.30;;
55469;SDS011;41334;47.872;16.384;2022-09-29T04:02:29;1.08;;;0.47;;
55469;SDS011;41334;47.872;16.384;2022-09-29T04:05:34;0.68;;;0.40;;
55469;SDS011;41334;47.872;16.384;2022-09-29T04:08:39;1.15;;;0.50;;
55469;SDS011;41334;47.872;16.384;2022-09-29T04:11:40;1.08;;;0.52;;
55469;SDS011;41334;47.872;16.384;2022-09-29T04:14:42;0.70;;;0.40;;
55469;SDS011;41334;47.872;16.384;2022-09-29T04:17:44;1.02;;;0.50;;
55469;SDS011;41334;47.872;16.384;2022-09-29T04:20:46;0.90;;;0.47;;
55469;SDS011;41334;47.872;16.384;2022-09-29T04:23:47;1.77;;;0.45;;
55469;SDS011;41334;47.872;16.384;2022-09-29T04:26:50;1.20;;;0.57;;
55469;SDS011;41334;47.872;16.384;2022-09-29T04:29:52;0.00;;;0.00;;
55469;SDS011;41334;47.872;16.384;2022-09-29T04:32:53;0.80;;;0.40;;
55469;SDS011;41334;47.872;16.384;2022-09-29T04:35:56;1.35;;;0.50;;
55469;SDS011;41334;47.872;16.384;2022-09-29T04:38:58;1.75;;;0.60;;
55469;SDS011;41334;47.872;16.384;2022-09-29T04:42:00;0.40;;;0.22;;
55469;SDS011;41334;47.872;16.384;2022-09-29T04:45:02;1.25;;;0.55;;
55469;SDS011;41334;47.872;16.384;2022-09-29T04:48:04;0.82;;;0.35;;
55469;SDS011;41334;47.872;16.384;2022-09-29T04:51:06;0.77;;;0.40;;
55469;SDS011;41334;47.872;16.384;2022-09-29T04:54:08;1.00;;;0.32;;
55469;SDS011;41334;47.872;16.384;2022-09-29T04:57:10;1.38;;;0.40;;
55469;SDS011;41334;47.872;16.384;2022-09-29T05:00:11;1.92;;;0.50;;
55469;SDS011;41334;47.872;16.384;2022-09-29T05:03:13;1.05;;;0.40;;
55469;SDS011;41334;47.872;16.384;2022-09-29T05:06:15;1.67;;;0.30;;
55469;SDS011;41334;47.872;16.384;2022-09-29T05:09:17;0.70;;;0.40;;
55469;SDS011;41334;47.872;16.384;2022-09-29T05:12:24;0.82;;;0.57;;
55469;SDS011;41334;47.872;16.384;2022-09-29T05:15:26;1.27;;;0.60;;
55469;SDS011;41334;47.872;16.384;2022-09-29T05:18:30;0.55;;;0.28;;
55469;SDS011;41334;47.872;16.384;2022-09-29T05:21:32;0.55;;;0.32;;
55469;SDS011;41334;47.872;16.384;2022-09-29T05:24:34;1.17;;;0.55;;
55469;SDS011;41334;47.872;16.384;2022-09-29T05:27:36;0.93;;;0.43;;
55469;SDS011;41334;47.872;16.384;2022-09-29T05:30:38;0.98;;;0.43;;
55469;SDS011;41334;47.872;16.384;2022-09-29T05:33:39;1.67;;;0.50;;
55469;SDS011;41334;47.872;16.384;2022-09-29T05:36:42;0.85;;;0.35;;
55469;SDS011;41334;47.872;16.384;2022-09-29T05:39:44;1.08;;;0.45;;
55469;SDS011;41334;47.872;16.384;2022-09-29T05:42:48;1.05;;;0.43;;
55469;SDS011;41334;47.872;16.384;2022-09-29T05:45:52;1.05;;;0.50;;
55469;SDS011;41334;47.872;16.384;2022-09-29T05:49:00;2.53;;;0.68;;
55469;SDS011;41334;47.872;16.384;2022-09-29T05:52:02;0.65;;;0.25;;
55469;SDS011;41334;47.872;16.384;2022-09-29T05:55:04;1.42;;;0.45;;
55469;SDS011;41334;47.872;16.384;2022-09-29T05:58:10;3.30;;;0.30;;
55469;SDS011;41334;47.872;16.384;2022-09-29T06:01:12;0.32;;;0.20;;
55469;SDS011;41334;47.872;16.384;2022-09-29T06:04:16;1.30;;;0.55;;
55469;SDS011;41334;47.872;16.384;2022-09-29T06:07:18;1.00;;;0.40;;
55469;SDS011;41334;47.872;16.384;2022-09-29T06:10:20;2.00;;;0.50;;
55469;SDS011;41334;47.872;16.384;2022-09-29T06:13:22;3.00;;;0.47;;
55469;SDS011;41334;47.872;16.384;2022-09-29T06:16:24;1.67;;;0.60;;
55469;SDS011;41334;47.872;16.384;2022-09-29T06:19:29;0.32;;;0.20;;
55469;SDS011;41334;47.872;16.384;2022-09-29T06:22:31;4.05;;;0.40;;
55469;SDS011;41334;47.872;16.384;2022-09-29T06:25:33;3.72;;;1.10;;
55469;SDS011;41334;47.872;16.384;2022-09-29T06:28:35;1.35;;;0.80;;
55469;SDS011;41334;47.872;16.384;2022-09-29T06:31:38;0.85;;;0.30;;
55469;SDS011;41334;47.872;16.384;2022-09-29T06:34:40;0.40;;;0.25;;
55469;SDS011;41334;47.872;16.384;2022-09-29T06:38:02;0.47;;;0.20;;
55469;SDS011;41334;47.872;16.384;2022-09-29T06:41:04;0.70;;;0.40;;
55469;SDS011;41334;47.872;16.384;2022-09-29T06:44:09;1.50;;;0.70;;
55469;SDS011;41334;47.872;16.384;2022-09-29T06:47:10;1.48;;;0.40;;
55469;SDS011;41334;47.872;16.384;2022-09-29T06:50:12;1.95;;;0.30;;
55469;SDS011;41334;47.872;16.384;2022-09-29T06:53:14;0.68;;;0.38;;
55469;SDS011;41334;47.872;16.384;2022-09-29T06:56:17;0.95;;;0.30;;
55469;SDS011;41334;47.872;16.384;2022-09-29T06:59:19;1.58;;;0.40;;
55469;SDS011;41334;47.872;16.384;2022-09-29T07:02:21;0.82;;;0.40;;
55469;SDS011;41334;47.872;16.384;2022-09-29T07:05:23;1.00;;;0.50;;
55469;SDS011;41334;47.872;16.384;2022-09-29T07:08:26;0.57;;;0.38;;
55469;SDS011;41334;47.872;16.384;2022-09-29T07:11:29;0.90;;;0.40;;
55469;SDS011;41334;47.872;16.384;2022-09-29T07:14:30;0.63;;;0.32;;
55469;SDS011;41334;47.872;16.384;2022-09-29T07:17:32;1.15;;;0.50;;
55469;SDS011;41334;47.872;16.384;2022-09-29T07:20:34;2.90;;;1.77;;
55469;SDS011;41334;47.872;16.384;2022-09-29T07:23:37;2.72;;;1.27;;
55469;SDS011;41334;47.872;16.384;2022-09-29T07:26:39;1.02;;;0.60;;
55469;SDS011;41334;47.872;16.384;2022-09-29T07:29:41;1.25;;;0.50;;
55469;SDS011;41334;47.872;16.384;2022-09-29T07:32:54;1.00;;;0.50;;
55469;SDS011;41334;47.872;16.384;2022-09-29T07:36:02;1.13;;;0.50;;
55469;SDS011;41334;47.872;16.384;2022-09-29T07:39:04;1.13;;;0.52;;
55469;SDS011;41334;47.872;16.384;2022-09-29T07:42:06;0.75;;;0.43;;
55469;SDS011;41334;47.872;16.384;2022-09-29T07:45:10;3.20;;;0.85;;
55469;SDS011;41334;47.872;16.384;2022-09-29T07:48:12;1.02;;;0.45;;
55469;SDS011;41334;47.872;16.384;2022-09-29T07:51:16;2.30;;;0.70;;
55469;SDS011;41334;47.872;16.384;2022-09-29T07:54:20;0.22;;;0.15;;
55469;SDS011;41334;47.872;16.384;2022-09-29T07:57:28;1.58;;;0.70;;
55469;SDS011;41334;47.872;16.384;2022-09-29T08:00:31;1.00;;;0.60;;
55469;SDS011;41334;47.872;16.384;2022-09-29T08:03:33;3.35;;;0.70;;
55469;SDS011;41334;47.872;16.384;2022-09-29T08:06:35;10.77;;;0.68;;
55469;SDS011;41334;47.872;16.384;2022-09-29T08:09:37;1.80;;;0.68;;
55469;SDS011;41334;47.872;16.384;2022-09-29T08:12:41;1.17;;;0.52;;
55469;SDS011;41334;47.872;16.384;2022-09-29T08:15:44;1.58;;;0.70;;
55469;SDS011;41334;47.872;16.384;2022-09-29T08:18:46;1.85;;;0.68;;
55469;SDS011;41334;47.872;16.384;2022-09-29T08:21:48;0.85;;;0.47;;
55469;SDS011;41334;47.872;16.384;2022-09-29T08:24:50;1.00;;;0.60;;
55469;SDS011;41334;47.872;16.384;2022-09-29T08:27:52;2.05;;;0.73;;
55469;SDS011;41334;47.872;16.384;2022-09-29T08:30:56;1.30;;;0.70;;
55469;SDS011;41334;47.872;16.384;2022-09-29T08:34:05;4.32;;;0.77;;
55469;SDS011;41334;47.872;16.384;2022-09-29T08:37:07;1.75;;;0.75;;
55469;SDS011;41334;47.872;16.384;2022-09-29T08:40:09;2.90;;;1.10;;
55469;SDS011;41334;47.872;16.384;2022-09-29T08:43:16;2.65;;;1.40;;
55469;SDS011;41334;47.872;16.384;2022-09-29T08:46:41;1.50;;;0.82;;
55469;SDS011;41334;47.872;16.384;2022-09-29T08:49:56;2.17;;;1.02;;
55469;SDS011;41334;47.872;16.384;2022-09-29T08:53:07;3.22;;;1.15;;
55469;SDS011;41334;47.872;16.384;2022-09-29T08:56:28;2.00;;;0.88;;
55469;SDS011;41334;47.872;16.384;2022-09-29T08:59:30;1.92;;;0.98;;
55469;SDS011;41334;47.872;16.384;2022-09-29T09:02:37;1.60;;;0.73;;
55469;SDS011;41334;47.872;16.384;2022-09-29T09:06:06;2.08;;;1.10;;
55469;SDS011;41334;47.872;16.384;2022-09-29T09:19:39;1.90;;;0.80;;
55469;SDS011;41334;47.872;16.384;2022-09-29T09:23:07;2.17;;;0.98;;
55469;SDS011;41334;47.872;16.384;2022-09-29T09:26:14;3.45;;;0.82;;
55469;SDS011;41334;47.872;16.384;2022-09-29T09:32:40;3.90;;;1.00;;
55469;SDS011;41334;47.872;16.384;2022-09-29T09:35:50;6.20;;;1.20;;
55469;SDS011;41334;47.872;16.384;2022-09-29T09:39:00;2.30;;;1.13;;
55469;SDS011;41334;47.872;16.384;2022-09-29T09:42:07;1.23;;;0.70;;
55469;SDS011;41334;47.872;16.384;2022-09-29T09:45:22;1.80;;;1.00;;
55469;SDS011;41334;47.872;16.384;2022-09-29T09:55:20;3.60;;;1.17;;
55469;SDS011;41334;47.872;16.384;2022-09-29T10:02:20;1.60;;;1.00;;
55469;SDS011;41334;47.872;16.384;2022-09-29T10:05:25;2.72;;;1.52;;
55469;SDS011;41334;47.872;16.384;2022-09-29T10:08:36;6.38;;;1.40;;
55469;SDS011;41334;47.872;16.384;2022-09-29T10:11:41;1.60;;;1.00;;
55469;SDS011;41334;47.872;16.384;2022-09-29T10:15:11;2.40;;;1.40;;
55469;SDS011;41334;47.872;16.384;2022-09-29T10:24:31;1.67;;;0.90;;
55469;SDS011;41334;47.872;16.384;2022-09-29T10:27:33;2.30;;;1.20;;
55469;SDS011;41334;47.872;16.384;2022-09-29T10:30:36;1.33;;;0.80;;
55469;SDS011;41334;47.872;16.384;2022-09-29T10:33:38;1.13;;;0.57;;
55469;SDS011;41334;47.872;16.384;2022-09-29T10:36:52;1.88;;;0.90;;
55469;SDS011;41334;47.872;16.384;2022-09-29T10:43:24;3.10;;;1.00;;
55469;SDS011;41334;47.872;16.384;2022-09-29T10:46:46;3.42;;;0.77;;
55469;SDS011;41334;47.872;16.384;2022-09-29T10:50:07;1.23;;;0.63;;
55469;SDS011;41334;47.872;16.384;2022-09-29T10:56:47;1.77;;;1.27;;
55469;SDS011;41334;47.872;16.384;2022-09-29T10:59:50;1.25;;;0.65;;
55469;SDS011;41334;47.872;16.384;2022-09-29T11:02:57;1.52;;;0.95;;
55469;SDS011;41334;47.872;16.384;2022-09-29T11:06:06;2.03;;;0.40;;
55469;SDS011;41334;47.872;16.384;2022-09-29T11:12:56;1.17;;;0.40;;
55469;SDS011;41334;47.872;16.384;2022-09-29T11:15:39;0.35;;;0.20;;
55469;SDS011;41334;47.872;16.384;2022-09-29T11:18:42;0.55;;;0.20;;
55469;SDS011;41334;47.872;16.384;2022-09-29T11:38:37;1.90;;;0.30;;
55469;SDS011;41334;47.872;16.384;2022-09-29T11:41:50;1.05;;;0.40;;
55469;SDS011;41334;47.872;16.384;2022-09-29T11:45:02;1.08;;;0.40;;
55469;SDS011;41334;47.872;16.384;2022-09-29T11:55:18;0.98;;;0.47;;
55469;SDS011;41334;47.872;16.384;2022-09-29T11:58:30;0.77;;;0.50;;
55469;SDS011;41334;47.872;16.384;2022-09-29T12:01:51;0.70;;;0.30;;
55469;SDS011;41334;47.872;16.384;2022-09-29T12:15:28;1.77;;;0.65;;
55469;SDS011;41334;47.872;16.384;2022-09-29T12:18:46;0.80;;;0.50;;
55469;SDS011;41334;47.872;16.384;2022-09-29T12:21:55;1.85;;;0.57;;
55469;SDS011;41334;47.872;16.384;2022-09-29T12:25:00;0.63;;;0.38;;
55469;SDS011;41334;47.872;16.384;2022-09-29T12:28:09;0.55;;;0.30;;
55469;SDS011;41334;47.872;16.384;2022-09-29T12:31:30;0.60;;;0.40;;
55469;SDS011;41334;47.872;16.384;2022-09-29T12:34:39;1.00;;;0.40;;
55469;SDS011;41334;47.872;16.384;2022-09-29T12:41:20;1.10;;;0.50;;
55469;SDS011;41334;47.872;16.384;2022-09-29T12:44:31;0.65;;;0.40;;
55469;SDS011;41334;47.872;16.384;2022-09-29T12:57:39;0.77;;;0.43;;
55469;SDS011;41334;47.872;16.384;2022-09-29T13:00:50;0.95;;;0.40;;
55469;SDS011;41334;47.872;16.384;2022-09-29T13:10:57;1.23;;;0.40;;
55469;SDS011;41334;47.872;16.384;2022-09-29T13:21:02;0.93;;;0.43;;
55469;SDS011;41334;47.872;16.384;2022-09-29T13:24:16;0.70;;;0.43;;
55469;SDS011;41334;47.872;16.384;2022-09-29T13:27:35;0.70;;;0.40;;
55469;SDS011;41334;47.872;16.384;2022-09-29T13:30:40;1.05;;;0.50;;
55469;SDS011;41334;47.872;16.384;2022-09-29T13:33:45;1.02;;;0.50;;
55469;SDS011;41334;47.872;16.384;2022-09-29T13:36:49;1.17;;;0.50;;
55469;SDS011;41334;47.872;16.384;2022-09-29T13:39:53;0.75;;;0.40;;
55469;SDS011;41334;47.872;16.384;2022-09-29T13:43:13;0.93;;;0.30;;
55469;SDS011;41334;47.872;16.384;2022-09-29T13:46:39;0.80;;;0.38;;
55469;SDS011;41334;47.872;16.384;2022-09-29T13:49:41;0.90;;;0.38;;
55469;SDS011;41334;47.872;16.384;2022-09-29T13:52:43;0.70;;;0.40;;
55469;SDS011;41334;47.872;16.384;2022-09-29T13:58:59;1.23;;;0.35;;
55469;SDS011;41334;47.872;16.384;2022-09-29T14:02:12;0.80;;;0.40;;
55469;SDS011;41334;47.872;16.384;2022-09-29T14:08:26;1.20;;;0.40;;
55469;SDS011;41334;47.872;16.384;2022-09-29T14:11:37;0.35;;;0.20;;
55469;SDS011;41334;47.872;16.384;2022-09-29T14:14:43;0.50;;;0.25;;
55469;SDS011;41334;47.872;16.384;2022-09-29T14:17:56;0.30;;;0.10;;
55469;SDS011;41334;47.872;16.384;2022-09-29T14:21:05;0.90;;;0.30;;
55469;SDS011;41334;47.872;16.384;2022-09-29T14:30:42;1.23;;;0.40;;
55469;SDS011;41334;47.872;16.384;2022-09-29T14:33:49;1.52;;;0.40;;
55469;SDS011;41334;47.872;16.384;2022-09-29T14:36:53;0.50;;;0.20;;
55469;SDS011;41334;47.872;16.384;2022-09-29T14:39:58;0.73;;;0.40;;
55469;SDS011;41334;47.872;16.384;2022-09-29T14:43:19;1.98;;;0.40;;
55469;SDS011;41334;47.872;16.384;2022-09-29T14:50:20;2.40;;;0.50;;
55469;SDS011;41334;47.872;16.384;2022-09-29T14:57:03;0.82;;;0.40;;
55469;SDS011;41334;47.872;16.384;2022-09-29T15:01:06;0.47;;;0.28;;
55469;SDS011;41334;47.872;16.384;2022-09-29T15:03:51;0.75;;;0.40;;
55469;SDS011;41334;47.872;16.384;2022-09-29T15:09:56;1.85;;;0.70;;
55469;SDS011;41334;47.872;16.384;2022-09-29T15:16:21;2.20;;;0.70;;
55469;SDS011;41334;47.872;16.384;2022-09-29T15:26:04;1.08;;;0.43;;
55469;SDS011;41334;47.872;16.384;2022-09-29T15:29:13;1.27;;;0.70;;
55469;SDS011;41334;47.872;16.384;2022-09-29T15:32:20;2.90;;;0.50;;
55469;SDS011;41334;47.872;16.384;2022-09-29T15:35:28;0.90;;;0.50;;
55469;SDS011;41334;47.872;16.384;2022-09-29T15:38:35;1.50;;;0.50;;
55469;SDS011;41334;47.872;16.384;2022-09-29T15:41:40;0.85;;;0.40;;
55469;SDS011;41334;47.872;16.384;2022-09-29T15:44:46;1.13;;;0.30;;
55469;SDS011;41334;47.872;16.384;2022-09-29T15:48:05;1.48;;;0.50;;
55469;SDS011;41334;47.872;16.384;2022-09-29T15:51:15;0.52;;;0.30;;
55469;SDS011;41334;47.872;16.384;2022-09-29T15:54:17;1.63;;;0.40;;
55469;SDS011;41334;47.872;16.384;2022-09-29T16:00:43;0.77;;;0.32;;
55469;SDS011;41334;47.872;16.384;2022-09-29T16:03:53;0.22;;;0.10;;
55469;SDS011;41334;47.872;16.384;2022-09-29T16:06:58;1.35;;;0.40;;
55469;SDS011;41334;47.872;16.384;2022-09-29T16:10:01;1.02;;;0.57;;
55469;SDS011;41334;47.872;16.384;2022-09-29T16:13:31;0.98;;;0.40;;
55469;SDS011;41334;47.872;16.384;2022-09-29T16:16:44;1.75;;;0.55;;
55469;SDS011;41334;47.872;16.384;2022-09-29T16:19:48;1.67;;;0.70;;
55469;SDS011;41334;47.872;16.384;2022-09-29T16:22:50;2.13;;;0.88;;
55469;SDS011;41334;47.872;16.384;2022-09-29T16:35:44;1.92;;;0.77;;
55469;SDS011;41334;47.872;16.384;2022-09-29T16:38:55;4.80;;;0.82;;
55469;SDS011;41334;47.872;16.384;2022-09-29T16:41:57;3.50;;;1.17;;
55469;SDS011;41334;47.872;16.384;2022-09-29T16:45:04;1.80;;;0.65;;
55469;SDS011;41334;47.872;16.384;2022-09-29T16:48:08;1.23;;;0.60;;
55469;SDS011;41334;47.872;16.384;2022-09-29T16:51:20;1.08;;;0.60;;
55469;SDS011;41334;47.872;16.384;2022-09-29T16:54:41;1.98;;;0.68;;
55469;SDS011;41334;47.872;16.384;2022-09-29T17:01:08;4.63;;;0.80;;
55469;SDS011;41334;47.872;16.384;2022-09-29T17:04:12;1.00;;;0.50;;
55469;SDS011;41334;47.872;16.384;2022-09-29T17:07:14;1.70;;;0.70;;
55469;SDS011;41334;47.872;16.384;2022-09-29T17:10:20;2.78;;;1.10;;
55469;SDS011;41334;47.872;16.384;2022-09-29T17:13:22;2.75;;;0.80;;
55469;SDS011;41334;47.872;16.384;2022-09-29T17:16:25;1.90;;;0.60;;
55469;SDS011;41334;47.872;16.384;2022-09-29T17:19:29;1.80;;;0.80;;
55469;SDS011;41334;47.872;16.384;2022-09-29T17:22:31;1.02;;;0.60;;
55469;SDS011;41334;47.872;16.384;2022-09-29T17:25:35;4.10;;;0.95;;
55469;SDS011;41334;47.872;16.384;2022-09-29T17:28:39;1.55;;;0.80;;
55469;SDS011;41334;47.872;16.384;2022-09-29T17:31:41;0.95;;;0.50;;
55469;SDS011;41334;47.872;16.384;2022-09-29T17:34:43;1.02;;;0.52;;
55469;SDS011;41334;47.872;16.384;2022-09-29T17:37:45;1.23;;;0.52;;
55469;SDS011;41334;47.872;16.384;2022-09-29T17:40:50;3.55;;;0.60;;
55469;SDS011;41334;47.872;16.384;2022-09-29T17:43:55;1.92;;;0.43;;
55469;SDS011;41334;47.872;16.384;2022-09-29T17:46:57;1.10;;;0.47;;
55469;SDS011;41334;47.872;16.384;2022-09-29T17:50:34;1.35;;;0.50;;
55469;SDS011;41334;47.872;16.384;2022-09-29T17:53:41;2.10;;;0.60;;
55469;SDS011;41334;47.872;16.384;2022-09-29T17:56:42;1.58;;;0.70;;
55469;SDS011;41334;47.872;16.384;2022-09-29T17:59:44;0.77;;;0.45;;
55469;SDS011;41334;47.872;16.384;2022-09-29T18:02:48;1.65;;;0.52;;
55469;SDS011;41334;47.872;16.384;2022-09-29T18:05:52;1.05;;;0.50;;
55469;SDS011;41334;47.872;16.384;2022-09-29T18:09:00;1.70;;;0.80;;
55469;SDS011;41334;47.872;16.384;2022-09-29T18:12:01;1.88;;;0.70;;
55469;SDS011;41334;47.872;16.384;2022-09-29T18:15:03;2.03;;;0.60;;
55469;SDS011;41334;47.872;16.384;2022-09-29T18:18:06;1.42;;;0.52;;
55469;SDS011;41334;47.872;16.384;2022-09-29T18:21:08;3.30;;;1.10;;
55469;SDS011;41334;47.872;16.384;2022-09-29T18:24:10;1.25;;;0.60;;
55469;SDS011;41334;47.872;16.384;2022-09-29T18:27:12;3.58;;;0.70;;
55469;SDS011;41334;47.872;16.384;2022-09-29T18:30:17;1.50;;;0.70;;
55469;SDS011;41334;47.872;16.384;2022-09-29T18:33:21;1.45;;;0.70;;
55469;SDS011;41334;47.872;16.384;2022-09-29T18:36:22;1.67;;;0.60;;
55469;SDS011;41334;47.872;16.384;2022-09-29T18:39:24;1.42;;;0.70;;
55469;SDS011;41334;47.872;16.384;2022-09-29T18:42:26;1.30;;;0.70;;
55469;SDS011;41334;47.872;16.384;2022-09-29T18:45:30;1.67;;;0.85;;
55469;SDS011;41334;47.872;16.384;2022-09-29T18:48:36;2.28;;;1.10;;
55469;SDS011;41334;47.872;16.384;2022-09-29T18:51:37;2.85;;;0.75;;
55469;SDS011;41334;47.872;16.384;2022-09-29T18:54:39;2.05;;;1.00;;
55469;SDS011;41334;47.872;16.384;2022-09-29T18:57:44;1.88;;;1.00;;
55469;SDS011;41334;47.872;16.384;2022-09-29T19:00:49;2.63;;;0.80;;
55469;SDS011;41334;47.872;16.384;2022-09-29T19:06:56;2.17;;;1.05;;
55469;SDS011;41334;47.872;16.384;2022-09-29T19:09:58;3.00;;;1.40;;
55469;SDS011;41334;47.872;16.384;2022-09-29T19:13:02;5.78;;;1.65;;
55469;SDS011;41334;47.872;16.384;2022-09-29T19:16:08;3.70;;;1.83;;
55469;SDS011;41334;47.872;16.384;2022-09-29T19:19:10;4.10;;;2.15;;
55469;SDS011;41334;47.872;16.384;2022-09-29T19:22:12;4.97;;;1.90;;
55469;SDS011;41334;47.872;16.384;2022-09-29T19:25:15;6.97;;;2.72;;
55469;SDS011;41334;47.872;16.384;2022-09-29T19:28:19;6.05;;;2.42;;
55469;SDS011;41334;47.872;16.384;2022-09-29T19:31:22;5.95;;;2.78;;
55469;SDS011;41334;47.872;16.384;2022-09-29T19:34:25;8.57;;;2.83;;
55469;SDS011;41334;47.872;16.384;2022-09-29T19:37:27;6.72;;;2.75;;
55469;SDS011;41334;47.872;16.384;2022-09-29T19:40:30;6.80;;;3.33;;
55469;SDS011;41334;47.872;16.384;2022-09-29T19:43:34;6.43;;;2.90;;
55469;SDS011;41334;47.872;16.384;2022-09-29T19:46:39;5.22;;;2.88;;
55469;SDS011;41334;47.872;16.384;2022-09-29T19:49:41;4.45;;;2.35;;
55469;SDS011;41334;47.872;16.384;2022-09-29T19:52:43;4.40;;;2.08;;
55469;SDS011;41334;47.872;16.384;2022-09-29T19:55:45;4.45;;;2.03;;
55469;SDS011;41334;47.872;16.384;2022-09-29T19:58:47;4.00;;;2.05;;
55469;SDS011;41334;47.872;16.384;2022-09-29T20:01:51;4.78;;;1.63;;
55469;SDS011;41334;47.872;16.384;2022-09-29T20:04:53;3.55;;;1.92;;
55469;SDS011;41334;47.872;16.384;2022-09-29T20:07:56;3.58;;;2.05;;
55469;SDS011;41334;47.872;16.384;2022-09-29T20:11:08;6.55;;;3.33;;
55469;SDS011;41334;47.872;16.384;2022-09-29T20:14:13;9.25;;;4.10;;
55469;SDS011;41334;47.872;16.384;2022-09-29T20:17:16;10.07;;;4.68;;
55469;SDS011;41334;47.872;16.384;2022-09-29T20:20:18;8.38;;;3.97;;
55469;SDS011;41334;47.872;16.384;2022-09-29T20:23:23;7.57;;;3.33;;
55469;SDS011;41334;47.872;16.384;2022-09-29T20:26:25;8.18;;;4.03;;
55469;SDS011;41334;47.872;16.384;2022-09-29T20:29:28;8.20;;;3.88;;
55469;SDS011;41334;47.872;16.384;2022-09-29T20:32:31;10.02;;;4.55;;
55469;SDS011;41334;47.872;16.384;2022-09-29T20:35:36;8.90;;;4.72;;
55469;SDS011;41334;47.872;16.384;2022-09-29T20:38:40;13.13;;;5.35;;
55469;SDS011;41334;47.872;16.384;2022-09-29T20:41:43;11.55;;;5.05;;
55469;SDS011;41334;47.872;16.384;2022-09-29T20:44:45;7.40;;;3.92;;
55469;SDS011;41334;47.872;16.384;2022-09-29T20:47:47;8.77;;;3.30;;
55469;SDS011;41334;47.872;16.384;2022-09-29T20:50:49;7.80;;;3.08;;
55469;SDS011;41334;47.872;16.384;2022-09-29T20:53:57;5.53;;;2.70;;
55469;SDS011;41334;47.872;16.384;2022-09-29T20:57:00;3.03;;;1.88;;
55469;SDS011;41334;47.872;16.384;2022-09-29T21:00:03;3.97;;;2.17;;
55469;SDS011;41334;47.872;16.384;2022-09-29T21:03:09;4.38;;;2.08;;
55469;SDS011;41334;47.872;16.384;2022-09-29T21:06:10;7.32;;;2.80;;
55469;SDS011;41334;47.872;16.384;2022-09-29T21:09:14;7.15;;;3.25;;
55469;SDS011;41334;47.872;16.384;2022-09-29T21:12:19;5.97;;;2.15;;
55469;SDS011;41334;47.872;16.384;2022-09-29T21:15:21;2.83;;;1.75;;
55469;SDS011;41334;47.872;16.384;2022-09-29T21:18:23;3.38;;;1.63;;
55469;SDS011;41334;47.872;16.384;2022-09-29T21:21:26;2.47;;;1.50;;
55469;SDS011;41334;47.872;16.384;2022-09-29T21:24:28;3.25;;;1.83;;
55469;SDS011;41334;47.872;16.384;2022-09-29T21:27:30;2.38;;;1.50;;
55469;SDS011;41334;47.872;16.384;2022-09-29T21:30:32;2.15;;;1.60;;
55469;SDS011;41334;47.872;16.384;2022-09-29T21:33:34;2.90;;;1.67;;